Time,TemperatureF,DewpointF,PressureIn,WindDirection,WindDirectionDegrees,WindSpeedMPH,WindSpeedGustMPH,Humidity,HourlyPrecipIn,Conditions,Clouds,dailyrainin,SoftwareType,DateUTC
2013-01-18 00:03:00,7.9,-4.9,30.18,NNE,32,5.0,7.0,55,0.00,,,0.00,Wunderground v.1.15,2013-01-18 05:03:00,
2013-01-18 00:04:00,7.9,-4.9,30.18,NNE,32,7.0,7.0,55,0.00,,,0.00,Wunderground v.1.15,2013-01-18 05:04:00,
2013-01-18 00:05:00,7.9,-4.9,30.18,NNE,23,3.0,7.0,55,0.00,,,0.00,Wunderground v.1.15,2013-01-18 05:05:00,
2013-01-18 00:06:00,7.9,-5.3,30.18,NNE,22,3.0,7.0,54,0.00,,,0.00,Wunderground v.1.15,2013-01-18 05:06:00,
2013-01-18 00:12:00,7.9,-4.9,30.18,NE,36,5.0,9.0,55,0.00,,,0.00,Wunderground v.1.15,2013-01-18 05:12:00,
2013-01-18 00:18:00,7.7,-5.1,30.18,NE,48,7.0,9.0,55,0.00,,,0.00,Wunderground v.1.15,2013-01-18 05:18:00,
2013-01-18 00:24:00,7.6,-5.2,30.18,ENE,59,7.0,10.0,55,0.00,,,0.00,Wunderground v.1.15,2013-01-18 05:24:00,
2013-01-18 00:30:00,7.6,-5.2,30.17,NE,55,4.0,5.0,55,0.00,,,0.00,Wunderground v.1.15,2013-01-18 05:30:00,
2013-01-18 00:36:00,7.6,-5.2,30.17,NE,51,4.0,5.0,55,0.00,,,0.00,Wunderground v.1.15,2013-01-18 05:36:00,
2013-01-18 00:42:00,7.6,-4.9,30.20,ENE,63,0.0,4.0,56,0.00,,,0.00,Wunderground v.1.15,2013-01-18 05:42:00,
2013-01-18 00:48:00,7.6,-5.6,30.20,NE,54,6.0,7.0,54,0.00,,,0.00,Wunderground v.1.15,2013-01-18 05:48:00,
2013-01-18 00:53:00,7.4,-5.8,30.20,NE,55,2.0,6.0,54,0.00,,,0.00,Wunderground v.1.15,2013-01-18 05:53:00,
2013-01-18 00:59:00,7.4,-5.4,30.19,NE,56,3.0,6.0,55,0.00,,,0.00,Wunderground v.1.15,2013-01-18 05:59:00,
2013-01-18 01:04:00,7.4,-5.4,30.19,NE,56,2.0,5.0,55,0.00,,,0.00,Wunderground v.1.15,2013-01-18 06:04:00,
2013-01-18 01:10:00,7.2,-5.6,30.19,NE,55,3.0,3.0,55,0.00,,,0.00,Wunderground v.1.15,2013-01-18 06:10:00,
2013-01-18 01:16:00,7.2,-6.0,30.19,NE,55,0.0,3.0,54,0.00,,,0.00,Wunderground v.1.15,2013-01-18 06:16:00,
2013-01-18 01:22:00,7.2,-5.6,30.19,NE,55,2.0,3.0,55,0.00,,,0.00,Wunderground v.1.15,2013-01-18 06:22:00,
2013-01-18 01:27:00,7.0,-5.4,30.19,NE,55,1.0,4.0,56,0.00,,,0.00,Wunderground v.1.15,2013-01-18 06:27:00,
2013-01-18 01:32:00,6.9,-5.9,30.19,NE,55,0.0,2.0,55,0.00,,,0.00,Wunderground v.1.15,2013-01-18 06:32:00,
2013-01-18 01:37:00,6.9,-6.3,30.19,NE,54,2.0,2.0,54,0.00,,,0.00,Wunderground v.1.15,2013-01-18 06:37:00,
2013-01-18 01:43:00,6.7,-6.1,30.20,NE,55,0.0,2.0,55,0.00,,,0.00,Wunderground v.1.15,2013-01-18 06:43:00,
2013-01-18 01:48:00,6.7,-6.1,30.20,NE,55,1.0,2.0,55,0.00,,,0.00,Wunderground v.1.15,2013-01-18 06:48:00,
2013-01-18 01:54:00,6.5,-6.3,30.20,NE,55,0.0,1.0,55,0.00,,,0.00,Wunderground v.1.15,2013-01-18 06:54:00,
2013-01-18 02:00:00,6.3,-6.4,30.19,NE,55,1.0,1.0,55,0.00,,,0.00,Wunderground v.1.15,2013-01-18 07:00:00,
2013-01-18 02:05:00,6.1,-6.6,30.19,NE,55,1.0,4.0,55,0.00,,,0.00,Wunderground v.1.15,2013-01-18 07:05:00,
2013-01-18 02:10:00,6.1,-6.3,30.19,NE,55,2.0,2.0,56,0.00,,,0.00,Wunderground v.1.15,2013-01-18 07:10:00,
2013-01-18 02:15:00,6.0,-6.7,30.20,NE,54,0.0,5.0,55,0.00,,,0.00,Wunderground v.1.15,2013-01-18 07:15:00,
2013-01-18 02:20:00,5.6,-6.7,30.20,NE,54,0.0,0.0,56,0.00,,,0.00,Wunderground v.1.15,2013-01-18 07:20:00,
2013-01-18 02:25:00,5.4,-6.9,30.20,NE,54,0.0,0.0,56,0.00,,,0.00,Wunderground v.1.15,2013-01-18 07:25:00,
2013-01-18 02:30:00,5.2,-7.1,30.21,NE,54,0.0,0.0,56,0.00,,,0.00,Wunderground v.1.15,2013-01-18 07:30:00,
2013-01-18 02:35:00,5.2,-7.1,30.21,NE,54,4.0,4.0,56,0.00,,,0.00,Wunderground v.1.15,2013-01-18 07:35:00,
2013-01-18 02:40:00,5.4,-7.7,30.21,NE,54,1.0,1.0,54,0.00,,,0.00,Wunderground v.1.15,2013-01-18 07:40:00,
2013-01-18 02:45:00,5.4,-7.7,30.21,NE,54,0.0,2.0,54,0.00,,,0.00,Wunderground v.1.15,2013-01-18 07:45:00,
2013-01-18 02:50:00,5.2,-7.5,30.21,NE,54,0.0,1.0,55,0.00,,,0.00,Wunderground v.1.15,2013-01-18 07:50:00,
2013-01-18 02:55:00,5.0,-7.7,30.22,NE,54,1.0,2.0,55,0.00,,,0.00,Wunderground v.1.15,2013-01-18 07:55:00,
2013-01-18 03:00:00,5.0,-7.7,30.22,NE,54,0.0,0.0,55,0.00,,,0.00,Wunderground v.1.15,2013-01-18 08:00:00,
2013-01-18 03:06:00,4.7,-8.0,30.22,NE,54,0.0,0.0,55,0.00,,,0.00,Wunderground v.1.15,2013-01-18 08:06:00,
2013-01-18 03:11:00,4.5,-8.1,30.23,NE,54,0.0,1.0,55,0.00,,,0.00,Wunderground v.1.15,2013-01-18 08:11:00,
2013-01-18 03:16:00,4.3,-8.3,30.23,NE,54,0.0,2.0,55,0.00,,,0.00,Wunderground v.1.15,2013-01-18 08:16:00,
2013-01-18 03:21:00,4.1,-8.5,30.23,NE,54,0.0,1.0,55,0.00,,,0.00,Wunderground v.1.15,2013-01-18 08:21:00,
2013-01-18 03:26:00,4.1,-7.8,30.23,NE,54,0.0,1.0,57,0.00,,,0.00,Wunderground v.1.15,2013-01-18 08:26:00,
2013-01-18 03:31:00,3.7,-8.2,30.23,NE,54,2.0,2.0,57,0.00,,,0.00,Wunderground v.1.15,2013-01-18 08:31:00,
2013-01-18 03:36:00,3.7,-8.2,30.23,NE,54,2.0,4.0,57,0.00,,,0.00,Wunderground v.1.15,2013-01-18 08:36:00,
2013-01-18 03:41:00,3.5,-8.3,30.23,NE,54,1.0,1.0,57,0.00,,,0.00,Wunderground v.1.15,2013-01-18 08:41:00,
2013-01-18 03:46:00,3.4,-8.4,30.23,NE,54,0.0,2.0,57,0.00,,,0.00,Wunderground v.1.15,2013-01-18 08:46:00,
2013-01-18 03:51:00,3.4,-8.1,30.23,NE,54,0.0,0.0,58,0.00,,,0.00,Wunderground v.1.15,2013-01-18 08:51:00,
2013-01-18 03:56:00,3.4,-7.7,30.23,NE,54,1.0,2.0,59,0.00,,,0.00,Wunderground v.1.15,2013-01-18 08:56:00,
2013-01-18 04:01:00,3.2,-7.9,30.23,NE,54,1.0,1.0,59,0.00,,,0.00,Wunderground v.1.15,2013-01-18 09:01:00,
2013-01-18 04:06:00,3.0,-8.1,30.23,NE,54,0.0,1.0,59,0.00,,,0.00,Wunderground v.1.15,2013-01-18 09:06:00,
2013-01-18 04:11:00,2.8,-8.3,30.24,NE,54,0.0,0.0,59,0.00,,,0.00,Wunderground v.1.15,2013-01-18 09:11:00,
2013-01-18 04:16:00,3.0,-8.5,30.24,NE,54,0.0,1.0,58,0.00,,,0.00,Wunderground v.1.15,2013-01-18 09:16:00,
2013-01-18 04:21:00,2.8,-9.0,30.24,NE,54,0.0,2.0,57,0.00,,,0.00,Wunderground v.1.15,2013-01-18 09:21:00,
2013-01-18 04:26:00,3.0,-9.9,30.24,NE,55,2.0,4.0,54,0.00,,,0.00,Wunderground v.1.15,2013-01-18 09:26:00,
2013-01-18 04:31:00,3.7,-10.8,30.24,NE,55,1.0,3.0,50,0.00,,,0.00,Wunderground v.1.15,2013-01-18 09:31:00,
2013-01-18 04:36:00,3.7,-9.3,30.24,NE,55,0.0,3.0,54,0.00,,,0.00,Wunderground v.1.15,2013-01-18 09:36:00,
2013-01-18 04:41:00,3.4,-8.4,30.26,NE,55,0.0,1.0,57,0.00,,,0.00,Wunderground v.1.15,2013-01-18 09:41:00,
2013-01-18 04:46:00,3.0,-8.5,30.26,NE,55,0.0,1.0,58,0.00,,,0.00,Wunderground v.1.15,2013-01-18 09:46:00,
2013-01-18 04:51:00,2.6,-8.8,30.26,NE,55,0.0,0.0,58,0.00,,,0.00,Wunderground v.1.15,2013-01-18 09:51:00,
2013-01-18 04:56:00,2.4,-8.7,30.27,NE,55,0.0,0.0,59,0.00,,,0.00,Wunderground v.1.15,2013-01-18 09:56:00,
2013-01-18 05:01:00,2.2,-8.2,30.27,NE,55,0.0,0.0,61,0.00,,,0.00,Wunderground v.1.15,2013-01-18 10:01:00,
2013-01-18 05:06:00,2.2,-8.2,30.27,NE,55,0.0,0.0,61,0.00,,,0.00,Wunderground v.1.15,2013-01-18 10:06:00,
2013-01-18 05:12:00,2.0,-8.4,30.28,NE,54,0.0,0.0,61,0.00,,,0.00,Wunderground v.1.15,2013-01-18 10:12:00,
2013-01-18 05:17:00,2.0,-8.4,30.28,NE,55,0.0,0.0,61,0.00,,,0.00,Wunderground v.1.15,2013-01-18 10:17:00,
2013-01-18 05:22:00,1.8,-8.2,30.28,NE,55,0.0,0.0,62,0.00,,,0.00,Wunderground v.1.15,2013-01-18 10:22:00,
2013-01-18 05:27:00,1.8,-8.6,30.29,NE,55,0.0,0.0,61,0.00,,,0.00,Wunderground v.1.15,2013-01-18 10:27:00,
2013-01-18 05:32:00,1.7,-9.0,30.29,NE,55,0.0,1.0,60,0.00,,,0.00,Wunderground v.1.15,2013-01-18 10:32:00,
2013-01-18 05:37:00,1.5,-9.2,30.29,NE,55,0.0,1.0,60,0.00,,,0.00,Wunderground v.1.15,2013-01-18 10:37:00,
2013-01-18 05:43:00,1.5,-9.2,30.29,NE,55,0.0,1.0,60,0.00,,,0.00,Wunderground v.1.15,2013-01-18 10:43:00,
2013-01-18 05:48:00,1.7,-9.7,30.29,NE,55,0.0,1.0,58,0.00,,,0.00,Wunderground v.1.15,2013-01-18 10:48:00,
2013-01-18 05:53:00,1.7,-10.4,30.29,NE,55,0.0,1.0,56,0.00,,,0.00,Wunderground v.1.15,2013-01-18 10:53:00,
2013-01-18 05:58:00,1.5,-9.9,30.29,NE,55,0.0,1.0,58,0.00,,,0.00,Wunderground v.1.15,2013-01-18 10:58:00,
2013-01-18 06:04:00,1.5,-9.5,30.29,NE,55,0.0,1.0,59,0.00,,,0.00,Wunderground v.1.15,2013-01-18 11:04:00,
2013-01-18 06:09:00,1.5,-9.2,30.29,NE,55,0.0,2.0,60,0.00,,,0.00,Wunderground v.1.15,2013-01-18 11:09:00,
2013-01-18 06:14:00,1.7,-9.3,30.30,NE,55,0.0,1.0,59,0.00,,,0.00,Wunderground v.1.15,2013-01-18 11:14:00,
2013-01-18 06:19:00,1.5,-8.5,30.30,NE,55,0.0,1.0,62,0.00,,,0.00,Wunderground v.1.15,2013-01-18 11:19:00,
2013-01-18 06:24:00,1.5,-7.6,30.30,NE,55,0.0,0.0,65,0.00,,,0.00,Wunderground v.1.15,2013-01-18 11:24:00,
2013-01-18 06:29:00,1.1,-7.9,30.30,NE,55,0.0,0.0,65,0.00,,,0.00,Wunderground v.1.15,2013-01-18 11:29:00,
2013-01-18 06:34:00,1.1,-8.9,30.30,NE,55,0.0,0.0,62,0.00,,,0.00,Wunderground v.1.15,2013-01-18 11:34:00,
2013-01-18 06:39:00,1.3,-9.0,30.30,NE,55,0.0,0.0,61,0.00,,,0.00,Wunderground v.1.15,2013-01-18 11:39:00,
2013-01-18 06:45:00,1.3,-9.4,30.30,NE,55,0.0,0.0,60,0.00,,,0.00,Wunderground v.1.15,2013-01-18 11:45:00,
2013-01-18 06:50:00,1.3,-9.4,30.30,NE,55,0.0,0.0,60,0.00,,,0.00,Wunderground v.1.15,2013-01-18 11:50:00,
2013-01-18 06:55:00,1.1,-9.6,30.31,NE,55,0.0,0.0,60,0.00,,,0.00,Wunderground v.1.15,2013-01-18 11:55:00,
2013-01-18 07:01:00,1.1,-9.2,30.31,NE,55,0.0,0.0,61,0.00,,,0.00,Wunderground v.1.15,2013-01-18 12:01:00,
2013-01-18 07:06:00,1.3,-8.7,30.31,NE,55,0.0,0.0,62,0.00,,,0.00,Wunderground v.1.15,2013-01-18 12:06:00,
2013-01-18 07:11:00,1.3,-9.0,30.32,NE,55,0.0,0.0,61,0.00,,,0.00,Wunderground v.1.15,2013-01-18 12:11:00,
2013-01-18 07:16:00,1.1,-8.9,30.32,NE,55,0.0,0.0,62,0.00,,,0.00,Wunderground v.1.15,2013-01-18 12:16:00,
2013-01-18 07:21:00,0.9,-8.1,30.32,NE,55,0.0,0.0,65,0.00,,,0.00,Wunderground v.1.15,2013-01-18 12:21:00,
2013-01-18 07:27:00,0.7,-7.7,30.33,NE,55,1.0,2.0,67,0.00,,,0.00,Wunderground v.1.15,2013-01-18 12:27:00,
2013-01-18 07:32:00,0.3,-7.2,30.33,NE,55,0.0,1.0,70,0.00,,,0.00,Wunderground v.1.15,2013-01-18 12:32:00,
2013-01-18 07:37:00,0.7,-6.5,30.33,NE,55,2.0,2.0,71,0.00,,,0.00,Wunderground v.1.15,2013-01-18 12:37:00,
2013-01-18 07:42:00,1.3,-6.5,30.34,NE,55,1.0,2.0,69,0.00,,,0.00,Wunderground v.1.15,2013-01-18 12:42:00,
2013-01-18 07:47:00,1.7,-7.0,30.34,NE,55,0.0,2.0,66,0.00,,,0.00,Wunderground v.1.15,2013-01-18 12:47:00,
2013-01-18 07:52:00,1.7,-7.4,30.34,NE,55,0.0,1.0,65,0.00,,,0.00,Wunderground v.1.15,2013-01-18 12:52:00,
2013-01-18 07:57:00,1.8,-7.6,30.36,NE,55,0.0,1.0,64,0.00,,,0.00,Wunderground v.1.15,2013-01-18 12:57:00,
2013-01-18 08:03:00,1.8,-7.6,30.36,NE,55,0.0,0.0,64,0.00,,,0.00,Wunderground v.1.15,2013-01-18 13:03:00,
2013-01-18 08:08:00,2.4,-6.7,30.36,NE,55,0.0,0.0,65,0.00,,,0.00,Wunderground v.1.15,2013-01-18 13:08:00,
2013-01-18 08:13:00,3.0,-6.8,30.36,NE,55,0.0,0.0,63,0.00,,,0.00,Wunderground v.1.15,2013-01-18 13:13:00,
2013-01-18 08:18:00,3.4,-7.4,30.36,NE,55,0.0,0.0,60,0.00,,,0.00,Wunderground v.1.15,2013-01-18 13:18:00,
2013-01-18 08:23:00,3.9,-7.6,30.36,NE,55,2.0,3.0,58,0.00,,,0.00,Wunderground v.1.15,2013-01-18 13:23:00,
2013-01-18 08:29:00,4.7,-8.7,30.37,ENE,61,3.0,4.0,53,0.00,,,0.00,Wunderground v.1.15,2013-01-18 13:29:00,
2013-01-18 08:34:00,5.4,-8.1,30.37,ENE,62,2.0,4.0,53,0.00,,,0.00,Wunderground v.1.15,2013-01-18 13:34:00,
2013-01-18 08:39:00,6.0,-8.7,30.37,ENE,64,1.0,5.0,50,0.00,,,0.00,Wunderground v.1.15,2013-01-18 13:39:00,
2013-01-18 08:44:00,6.9,-7.8,30.37,ENE,64,2.0,4.0,50,0.00,,,0.00,Wunderground v.1.15,2013-01-18 13:44:00,
2013-01-18 08:49:00,7.9,-6.9,30.37,ENE,64,1.0,4.0,50,0.00,,,0.00,Wunderground v.1.15,2013-01-18 13:49:00,
2013-01-18 08:54:00,8.8,-6.5,30.37,ENE,64,2.0,4.0,49,0.00,,,0.00,Wunderground v.1.15,2013-01-18 13:54:00,
2013-01-18 08:59:00,9.2,-7.0,30.37,ENE,64,0.0,4.0,47,0.00,,,0.00,Wunderground v.1.15,2013-01-18 13:59:00,
2013-01-18 09:04:00,8.8,-8.3,30.37,ENE,64,2.0,2.0,45,0.00,,,0.00,Wunderground v.1.15,2013-01-18 14:04:00,
2013-01-18 09:09:00,7.9,-9.1,30.37,ENE,67,3.0,5.0,45,0.00,,,0.00,Wunderground v.1.15,2013-01-18 14:09:00,
2013-01-18 09:14:00,7.6,-9.4,30.38,ENE,68,2.0,4.0,45,0.00,,,0.00,Wunderground v.1.15,2013-01-18 14:14:00,
2013-01-18 09:19:00,7.7,-8.4,30.38,ENE,75,3.0,5.0,47,0.00,,,0.00,Wunderground v.1.15,2013-01-18 14:19:00,
2013-01-18 09:25:00,7.7,-9.3,30.38,East,92,4.0,5.0,45,0.00,,,0.00,Wunderground v.1.15,2013-01-18 14:25:00,
2013-01-18 09:30:00,7.9,-9.1,30.38,ESE,113,3.0,3.0,45,0.00,,,0.00,Wunderground v.1.15,2013-01-18 14:30:00,
2013-01-18 09:35:00,7.9,-9.1,30.38,SE,140,1.0,9.0,45,0.00,,,0.00,Wunderground v.1.15,2013-01-18 14:35:00,
2013-01-18 09:40:00,8.6,-8.4,30.38,SE,140,4.0,4.0,45,0.00,,,0.00,Wunderground v.1.15,2013-01-18 14:40:00,
2013-01-18 09:45:00,9.2,-7.4,30.38,SE,135,5.0,5.0,46,0.00,,,0.00,Wunderground v.1.15,2013-01-18 14:45:00,
2013-01-18 09:50:00,9.3,-7.8,30.38,SE,135,0.0,4.0,45,0.00,,,0.00,Wunderground v.1.15,2013-01-18 14:50:00,
2013-01-18 09:55:00,9.9,-6.8,30.38,SE,135,4.0,5.0,46,0.00,,,0.00,Wunderground v.1.15,2013-01-18 14:55:00,
2013-01-18 10:00:00,10.4,-5.9,30.39,SE,135,2.0,3.0,47,0.00,,,0.00,Wunderground v.1.15,2013-01-18 15:00:00,
2013-01-18 10:05:00,10.5,-5.8,30.39,SE,134,4.0,6.0,47,0.00,,,0.00,Wunderground v.1.15,2013-01-18 15:05:00,
2013-01-18 10:10:00,10.2,-6.1,30.39,SE,134,2.0,3.0,47,0.00,,,0.00,Wunderground v.1.15,2013-01-18 15:10:00,
2013-01-18 10:15:00,10.0,-6.7,30.39,SE,138,4.0,5.0,46,0.00,,,0.00,Wunderground v.1.15,2013-01-18 15:15:00,
2013-01-18 10:21:00,10.4,-6.8,30.39,SE,139,2.0,4.0,45,0.00,,,0.00,Wunderground v.1.15,2013-01-18 15:21:00,
2013-01-18 10:26:00,11.7,-4.7,30.38,ESE,115,5.0,6.0,47,0.00,,,0.00,Wunderground v.1.15,2013-01-18 15:26:00,
2013-01-18 10:31:00,11.4,-6.3,30.38,SE,128,6.0,6.0,44,0.00,,,0.00,Wunderground v.1.15,2013-01-18 15:31:00,
2013-01-18 10:36:00,10.9,-7.3,30.38,SE,132,3.0,7.0,43,0.00,,,0.00,Wunderground v.1.15,2013-01-18 15:36:00,
2013-01-18 10:41:00,11.7,-5.1,30.38,ESE,123,6.0,6.0,46,0.00,,,0.00,Wunderground v.1.15,2013-01-18 15:41:00,
2013-01-18 10:46:00,11.9,-6.8,30.38,SE,138,4.0,8.0,42,0.00,,,0.00,Wunderground v.1.15,2013-01-18 15:46:00,
2013-01-18 10:51:00,12.4,-4.9,30.38,SE,138,5.0,5.0,45,0.00,,,0.00,Wunderground v.1.15,2013-01-18 15:51:00,
2013-01-18 10:56:00,12.1,-7.1,30.38,SE,138,2.0,5.0,41,0.00,,,0.00,Wunderground v.1.15,2013-01-18 15:56:00,
2013-01-18 11:01:00,11.9,-6.8,30.38,SE,141,4.0,5.0,42,0.00,,,0.00,Wunderground v.1.15,2013-01-18 16:01:00,
2013-01-18 11:06:00,12.3,-6.0,30.38,SE,142,1.0,5.0,43,0.00,,,0.00,Wunderground v.1.15,2013-01-18 16:06:00,
2013-01-18 11:11:00,13.3,-3.7,30.38,ESE,113,1.0,6.0,46,0.00,,,0.00,Wunderground v.1.15,2013-01-18 16:11:00,
2013-01-18 11:17:00,13.1,-6.2,30.38,SE,137,0.0,6.0,41,0.00,,,0.00,Wunderground v.1.15,2013-01-18 16:17:00,
2013-01-18 11:22:00,13.5,-4.4,30.38,SE,142,3.0,6.0,44,0.00,,,0.00,Wunderground v.1.15,2013-01-18 16:22:00,
2013-01-18 11:27:00,14.6,-3.9,30.36,ESE,116,1.0,7.0,43,0.00,,,0.00,Wunderground v.1.15,2013-01-18 16:27:00,
2013-01-18 11:32:00,14.3,-4.2,30.36,ESE,123,2.0,3.0,43,0.00,,,0.00,Wunderground v.1.15,2013-01-18 16:32:00,
2013-01-18 11:37:00,16.1,-1.5,30.36,ESE,118,0.0,4.0,45,0.00,,,0.00,Wunderground v.1.15,2013-01-18 16:37:00,
2013-01-18 11:42:00,17.2,-1.5,30.35,East,98,1.0,7.0,43,0.00,,,0.00,Wunderground v.1.15,2013-01-18 16:42:00,
2013-01-18 11:47:00,18.0,-2.3,30.35,East,94,1.0,7.0,40,0.00,,,0.00,Wunderground v.1.15,2013-01-18 16:47:00,
2013-01-18 11:52:00,18.3,-2.0,30.35,East,94,0.0,2.0,40,0.00,,,0.00,Wunderground v.1.15,2013-01-18 16:52:00,
2013-01-18 11:57:00,18.8,-1.6,30.34,East,94,0.0,2.0,40,0.00,,,0.00,Wunderground v.1.15,2013-01-18 16:57:00,
2013-01-18 12:02:00,19.2,-1.8,30.34,East,94,2.0,3.0,39,0.00,,,0.00,Wunderground v.1.15,2013-01-18 17:02:00,
2013-01-18 12:07:00,18.1,-2.2,30.34,East,92,0.0,4.0,40,0.00,,,0.00,Wunderground v.1.15,2013-01-18 17:07:00,
2013-01-18 12:12:00,18.4,-2.5,30.35,East,92,2.0,2.0,39,0.00,,,0.00,Wunderground v.1.15,2013-01-18 17:12:00,
2013-01-18 12:17:00,19.1,-0.3,30.35,East,92,0.0,2.0,42,0.00,,,0.00,Wunderground v.1.15,2013-01-18 17:17:00,
2013-01-18 12:22:00,19.9,-1.7,30.35,East,92,0.0,2.0,38,0.00,,,0.00,Wunderground v.1.15,2013-01-18 17:22:00,
2013-01-18 12:27:00,20.5,-1.1,30.35,East,92,3.0,3.0,38,0.00,,,0.00,Wunderground v.1.15,2013-01-18 17:27:00,
2013-01-18 12:32:00,18.4,-5.3,30.35,East,96,1.0,4.0,34,0.00,,,0.00,Wunderground v.1.15,2013-01-18 17:32:00,
2013-01-18 12:37:00,17.0,-5.4,30.35,ESE,104,0.0,4.0,36,0.00,,,0.00,Wunderground v.1.15,2013-01-18 17:37:00,
2013-01-18 12:42:00,17.5,-3.3,30.34,ESE,106,0.0,5.0,39,0.00,,,0.00,Wunderground v.1.15,2013-01-18 17:42:00,
2013-01-18 12:47:00,18.6,-3.4,30.34,ESE,106,0.0,5.0,37,0.00,,,0.00,Wunderground v.1.15,2013-01-18 17:47:00,
2013-01-18 12:52:00,18.1,-3.9,30.34,ESE,106,2.0,3.0,37,0.00,,,0.00,Wunderground v.1.15,2013-01-18 17:52:00,
2013-01-18 12:57:00,18.6,-2.8,30.34,ESE,106,0.0,3.0,38,0.00,,,0.00,Wunderground v.1.15,2013-01-18 17:57:00,
2013-01-18 13:02:00,20.2,-0.3,30.34,ESE,106,1.0,2.0,40,0.00,,,0.00,Wunderground v.1.15,2013-01-18 18:02:00,
2013-01-18 13:07:00,19.7,-0.2,30.34,ESE,111,4.0,5.0,41,0.00,,,0.00,Wunderground v.1.15,2013-01-18 18:07:00,
2013-01-18 13:12:00,20.6,-2.2,30.34,ESE,111,0.0,4.0,36,0.00,,,0.00,Wunderground v.1.15,2013-01-18 18:12:00,
2013-01-18 13:17:00,19.4,-3.8,30.34,ESE,111,2.0,4.0,35,0.00,,,0.00,Wunderground v.1.15,2013-01-18 18:17:00,
2013-01-18 13:22:00,18.8,-4.4,30.34,ESE,111,0.0,3.0,35,0.00,,,0.00,Wunderground v.1.15,2013-01-18 18:22:00,
2013-01-18 13:28:00,20.2,-1.4,30.35,ESE,111,0.0,3.0,38,0.00,,,0.00,Wunderground v.1.15,2013-01-18 18:28:00,
2013-01-18 13:33:00,21.9,1.2,30.35,ESE,111,0.0,0.0,40,0.00,,,0.00,Wunderground v.1.15,2013-01-18 18:33:00,
2013-01-18 13:38:00,22.4,-0.6,30.35,ESE,111,0.0,3.0,36,0.00,,,0.00,Wunderground v.1.15,2013-01-18 18:38:00,
2013-01-18 13:43:00,22.7,-0.9,30.36,ESE,111,0.0,1.0,35,0.00,,,0.00,Wunderground v.1.15,2013-01-18 18:43:00,
2013-01-18 13:48:00,22.9,0.5,30.36,ESE,111,2.0,3.0,37,0.00,,,0.00,Wunderground v.1.15,2013-01-18 18:48:00,
2013-01-18 13:53:00,22.9,-1.3,30.36,ESE,111,0.0,2.0,34,0.00,,,0.00,Wunderground v.1.15,2013-01-18 18:53:00,
2013-01-18 13:58:00,23.0,-0.6,30.36,ESE,111,2.0,2.0,35,0.00,,,0.00,Wunderground v.1.15,2013-01-18 18:58:00,
2013-01-18 14:03:00,23.2,0.7,30.36,ESE,111,0.0,2.0,37,0.00,,,0.00,Wunderground v.1.15,2013-01-18 19:03:00,
2013-01-18 14:08:00,23.3,-1.0,30.36,ESE,111,0.0,2.0,34,0.00,,,0.00,Wunderground v.1.15,2013-01-18 19:08:00,
2013-01-18 14:13:00,23.8,-1.8,30.35,ESE,111,0.0,0.0,32,0.00,,,0.00,Wunderground v.1.15,2013-01-18 19:13:00,
2013-01-18 14:18:00,24.4,-0.6,30.35,ESE,111,2.0,3.0,33,0.00,,,0.00,Wunderground v.1.15,2013-01-18 19:18:00,
2013-01-18 14:23:00,24.5,0.1,30.35,ESE,106,0.0,1.0,34,0.00,,,0.00,Wunderground v.1.15,2013-01-18 19:23:00,
2013-01-18 14:28:00,24.1,1.0,30.35,ESE,106,1.0,3.0,36,0.00,,,0.00,Wunderground v.1.15,2013-01-18 19:28:00,
2013-01-18 14:33:00,23.8,-0.5,30.35,ESE,106,2.0,4.0,34,0.00,,,0.00,Wunderground v.1.15,2013-01-18 19:33:00,
2013-01-18 14:38:00,23.3,1.4,30.35,ESE,106,0.0,4.0,38,0.00,,,0.00,Wunderground v.1.15,2013-01-18 19:38:00,
2013-01-18 14:43:00,23.3,-2.3,30.35,ESE,106,0.0,1.0,32,0.00,,,0.00,Wunderground v.1.15,2013-01-18 19:43:00,
2013-01-18 14:48:00,23.3,-1.6,30.35,ESE,106,0.0,1.0,33,0.00,,,0.00,Wunderground v.1.15,2013-01-18 19:48:00,
2013-01-18 14:53:00,22.2,-3.2,30.35,SSE,164,6.0,7.0,32,0.00,,,0.00,Wunderground v.1.15,2013-01-18 19:53:00,
2013-01-18 14:59:00,20.0,-3.9,30.34,South,179,1.0,8.0,34,0.00,,,0.00,Wunderground v.1.15,2013-01-18 19:59:00,
2013-01-18 15:04:00,19.9,-2.8,30.34,South,178,2.0,4.0,36,0.00,,,0.00,Wunderground v.1.15,2013-01-18 20:04:00,
2013-01-18 15:09:00,20.6,-2.8,30.34,South,178,0.0,4.0,35,0.00,,,0.00,Wunderground v.1.15,2013-01-18 20:09:00,
2013-01-18 15:15:00,21.0,-4.3,30.34,South,178,0.0,3.0,32,0.00,,,0.00,Wunderground v.1.15,2013-01-18 20:15:00,
2013-01-18 15:20:00,22.1,-0.8,30.34,South,178,0.0,0.0,36,0.00,,,0.00,Wunderground v.1.15,2013-01-18 20:20:00,
2013-01-18 15:25:00,23.5,-0.8,30.34,SSE,162,0.0,3.0,34,0.00,,,0.00,Wunderground v.1.15,2013-01-18 20:25:00,
2013-01-18 15:30:00,22.9,-4.0,30.33,SSE,161,0.0,1.0,30,0.00,,,0.00,Wunderground v.1.15,2013-01-18 20:30:00,
2013-01-18 15:35:00,21.0,-4.3,30.33,SSE,161,4.0,5.0,32,0.00,,,0.00,Wunderground v.1.15,2013-01-18 20:35:00,
2013-01-18 15:40:00,20.5,-3.5,30.33,SSE,162,1.0,2.0,34,0.00,,,0.00,Wunderground v.1.15,2013-01-18 20:40:00,
2013-01-18 15:45:00,20.0,-5.2,30.34,SSE,166,3.0,5.0,32,0.00,,,0.00,Wunderground v.1.15,2013-01-18 20:45:00,
2013-01-18 15:50:00,19.5,-3.2,30.34,SSE,163,4.0,5.0,36,0.00,,,0.00,Wunderground v.1.15,2013-01-18 20:50:00,
2013-01-18 15:55:00,19.2,-4.0,30.35,SSE,163,4.0,9.0,35,0.00,,,0.00,Wunderground v.1.15,2013-01-18 20:55:00,
2013-01-18 16:00:00,19.2,-3.4,30.35,SSE,167,4.0,4.0,36,0.00,,,0.00,Wunderground v.1.15,2013-01-18 21:00:00,
2013-01-18 16:05:00,19.2,-4.0,30.35,SSE,167,1.0,5.0,35,0.00,,,0.00,Wunderground v.1.15,2013-01-18 21:05:00,
2013-01-18 16:10:00,19.2,-4.6,30.35,SSE,167,2.0,3.0,34,0.00,,,0.00,Wunderground v.1.15,2013-01-18 21:10:00,
2013-01-18 16:15:00,19.2,-4.6,30.35,SSE,167,1.0,5.0,34,0.00,,,0.00,Wunderground v.1.15,2013-01-18 21:15:00,
2013-01-18 16:20:00,19.5,-4.4,30.35,SSE,167,2.0,3.0,34,0.00,,,0.00,Wunderground v.1.15,2013-01-18 21:20:00,
2013-01-18 16:25:00,19.4,-4.5,30.35,SSE,167,1.0,3.0,34,0.00,,,0.00,Wunderground v.1.15,2013-01-18 21:25:00,
2013-01-18 16:30:00,19.1,-4.7,30.35,SSE,167,3.0,4.0,34,0.00,,,0.00,Wunderground v.1.15,2013-01-18 21:30:00,
2013-01-18 16:35:00,18.8,-4.4,30.35,SSE,167,1.0,4.0,35,0.00,,,0.00,Wunderground v.1.15,2013-01-18 21:35:00,
2013-01-18 16:40:00,18.4,-4.2,30.35,SSE,167,2.0,4.0,36,0.00,,,0.00,Wunderground v.1.15,2013-01-18 21:40:00,
2013-01-18 16:45:00,18.3,-3.7,30.35,SSE,167,2.0,4.0,37,0.00,,,0.00,Wunderground v.1.15,2013-01-18 21:45:00,
2013-01-18 16:50:00,18.0,-3.4,30.35,SSE,167,0.0,2.0,38,0.00,,,0.00,Wunderground v.1.15,2013-01-18 21:50:00,
2013-01-18 16:55:00,17.7,-2.6,30.35,SSE,167,0.0,2.0,40,0.00,,,0.00,Wunderground v.1.15,2013-01-18 21:55:00,
2013-01-18 17:00:00,17.3,-2.9,30.35,SSE,167,2.0,3.0,40,0.00,,,0.00,Wunderground v.1.15,2013-01-18 22:00:00,
2013-01-18 17:05:00,17.0,-2.7,30.35,SSE,167,0.0,3.0,41,0.00,,,0.00,Wunderground v.1.15,2013-01-18 22:05:00,
2013-01-18 17:10:00,16.5,-1.2,30.35,SSE,167,0.0,3.0,45,0.00,,,0.00,Wunderground v.1.15,2013-01-18 22:10:00,
2013-01-18 17:15:00,16.5,-2.6,30.35,SSE,167,1.0,3.0,42,0.00,,,0.00,Wunderground v.1.15,2013-01-18 22:15:00,
2013-01-18 17:20:00,16.5,-2.6,30.35,SSE,167,4.0,4.0,42,0.00,,,0.00,Wunderground v.1.15,2013-01-18 22:20:00,
2013-01-18 17:25:00,16.5,-2.6,30.35,SSE,164,3.0,6.0,42,0.00,,,0.00,Wunderground v.1.15,2013-01-18 22:25:00,
2013-01-18 17:30:00,16.4,-3.2,30.35,SSE,164,2.0,5.0,41,0.00,,,0.00,Wunderground v.1.15,2013-01-18 22:30:00,
2013-01-18 17:35:00,16.2,-2.9,30.35,SSE,164,2.0,5.0,42,0.00,,,0.00,Wunderground v.1.15,2013-01-18 22:35:00,
2013-01-18 17:40:00,16.1,-3.0,30.35,SSE,164,3.0,3.0,42,0.00,,,0.00,Wunderground v.1.15,2013-01-18 22:40:00,
2013-01-18 17:45:00,15.9,-3.2,30.35,SSE,164,4.0,5.0,42,0.00,,,0.00,Wunderground v.1.15,2013-01-18 22:45:00,
2013-01-18 17:50:00,15.9,-3.7,30.35,SSE,163,3.0,5.0,41,0.00,,,0.00,Wunderground v.1.15,2013-01-18 22:50:00,
2013-01-18 17:55:00,15.9,-4.2,30.34,SSE,163,3.0,6.0,40,0.00,,,0.00,Wunderground v.1.15,2013-01-18 22:55:00,
2013-01-18 18:00:00,15.9,-4.2,30.34,SSE,162,4.0,4.0,40,0.00,,,0.00,Wunderground v.1.15,2013-01-18 23:00:00,
2013-01-18 18:05:00,15.7,-4.4,30.34,SSE,159,4.0,7.0,40,0.00,,,0.00,Wunderground v.1.15,2013-01-18 23:05:00,
2013-01-18 18:10:00,15.7,-4.9,30.33,SSE,158,3.0,4.0,39,0.00,,,0.00,Wunderground v.1.15,2013-01-18 23:10:00,
2013-01-18 18:15:00,15.7,-4.9,30.33,SSE,153,6.0,7.0,39,0.00,,,0.00,Wunderground v.1.15,2013-01-18 23:15:00,
2013-01-18 18:20:00,15.7,-4.4,30.33,SSE,148,7.0,7.0,40,0.00,,,0.00,Wunderground v.1.15,2013-01-18 23:20:00,
2013-01-18 18:25:00,15.6,-4.5,30.33,SE,135,6.0,12.0,40,0.00,,,0.00,Wunderground v.1.15,2013-01-18 23:25:00,
2013-01-18 18:30:00,15.6,-4.5,30.33,SE,133,9.0,9.0,40,0.00,,,0.00,Wunderground v.1.15,2013-01-18 23:30:00,
2013-01-18 18:35:00,15.4,-4.7,30.33,SE,136,5.0,10.0,40,0.00,,,0.00,Wunderground v.1.15,2013-01-18 23:35:00,
2013-01-18 18:40:00,15.4,-4.1,30.32,SE,136,10.0,10.0,41,0.00,,,0.00,Wunderground v.1.15,2013-01-18 23:40:00,
2013-01-18 18:45:00,15.1,-3.9,30.32,SE,134,5.0,11.0,42,0.00,,,0.00,Wunderground v.1.15,2013-01-18 23:45:00,
2013-01-18 18:50:00,14.9,-4.1,30.32,SE,132,3.0,7.0,42,0.00,,,0.00,Wunderground v.1.15,2013-01-18 23:50:00,
2013-01-18 18:55:00,14.8,-3.7,30.32,SE,139,6.0,12.0,43,0.00,,,0.00,Wunderground v.1.15,2013-01-18 23:55:00,
2013-01-18 19:00:00,14.4,-3.1,30.32,SE,141,7.0,7.0,45,0.00,,,0.00,Wunderground v.1.15,2013-01-19 00:00:00,
2013-01-18 19:05:00,14.3,-3.2,30.32,SE,141,5.0,10.0,45,0.00,,,0.00,Wunderground v.1.15,2013-01-19 00:05:00,
2013-01-18 19:11:00,14.3,-3.2,30.33,SE,141,2.0,9.0,45,0.00,,,0.00,Wunderground v.1.15,2013-01-19 00:11:00,
2013-01-18 19:16:00,14.4,-3.6,30.33,SE,140,10.0,12.0,44,0.00,,,0.00,Wunderground v.1.15,2013-01-19 00:16:00,
2013-01-18 19:21:00,14.6,-3.9,30.33,SE,140,8.0,10.0,43,0.00,,,0.00,Wunderground v.1.15,2013-01-19 00:21:00,
2013-01-18 19:26:00,15.1,-3.9,30.33,SE,140,5.0,12.0,42,0.00,,,0.00,Wunderground v.1.15,2013-01-19 00:26:00,
2013-01-18 19:31:00,15.2,-4.3,30.33,SSE,147,10.0,10.0,41,0.00,,,0.00,Wunderground v.1.15,2013-01-19 00:31:00,
2013-01-18 19:36:00,15.4,-4.1,30.33,SE,146,4.0,11.0,41,0.00,,,0.00,Wunderground v.1.15,2013-01-19 00:36:00,
2013-01-18 19:41:00,15.4,-4.1,30.32,SE,139,8.0,9.0,41,0.00,,,0.00,Wunderground v.1.15,2013-01-19 00:41:00,
2013-01-18 19:46:00,15.4,-4.1,30.32,SE,140,8.0,12.0,41,0.00,,,0.00,Wunderground v.1.15,2013-01-19 00:46:00,
2013-01-18 19:51:00,15.6,-4.5,30.32,SE,131,3.0,7.0,40,0.00,,,0.00,Wunderground v.1.15,2013-01-19 00:51:00,
2013-01-18 19:56:00,15.7,-4.4,30.32,SE,126,9.0,12.0,40,0.00,,,0.00,Wunderground v.1.15,2013-01-19 00:56:00,
2013-01-18 20:01:00,15.7,-3.4,30.32,ESE,123,4.0,8.0,42,0.00,,,0.00,Wunderground v.1.15,2013-01-19 01:01:00,
2013-01-18 20:06:00,15.4,-3.1,30.32,SSE,149,3.0,10.0,43,0.00,,,0.00,Wunderground v.1.15,2013-01-19 01:06:00,
2013-01-18 20:11:00,14.9,-2.6,30.32,SSE,148,7.0,12.0,45,0.00,,,0.00,Wunderground v.1.15,2013-01-19 01:11:00,
2013-01-18 20:16:00,14.9,-2.6,30.32,SSE,152,2.0,12.0,45,0.00,,,0.00,Wunderground v.1.15,2013-01-19 01:16:00,
2013-01-18 20:21:00,15.2,-2.4,30.32,SE,139,11.0,12.0,45,0.00,,,0.00,Wunderground v.1.15,2013-01-19 01:21:00,
2013-01-18 20:26:00,15.1,-1.5,30.31,SSE,157,10.0,12.0,47,0.00,,,0.00,Wunderground v.1.15,2013-01-19 01:26:00,
2013-01-18 20:31:00,15.2,-1.0,30.31,SSE,153,9.0,11.0,48,0.00,,,0.00,Wunderground v.1.15,2013-01-19 01:31:00,
2013-01-18 20:36:00,15.4,-0.8,30.31,SSE,151,11.0,13.0,48,0.00,,,0.00,Wunderground v.1.15,2013-01-19 01:36:00,
2013-01-18 20:41:00,15.6,0.2,30.31,SSE,149,7.0,14.0,50,0.00,,,0.00,Wunderground v.1.15,2013-01-19 01:41:00,
2013-01-18 20:46:00,15.7,1.2,30.31,SSE,161,11.0,17.0,52,0.00,,,0.00,Wunderground v.1.15,2013-01-19 01:46:00,
2013-01-18 20:51:00,16.1,1.5,30.31,SE,142,5.0,14.0,52,0.00,,,0.00,Wunderground v.1.15,2013-01-19 01:51:00,
2013-01-18 20:56:00,16.2,2.0,30.30,SE,146,6.0,15.0,53,0.00,,,0.00,Wunderground v.1.15,2013-01-19 01:56:00,
2013-01-18 21:02:00,16.4,2.6,30.30,SSE,159,7.0,14.0,54,0.00,,,0.00,Wunderground v.1.15,2013-01-19 02:02:00,
2013-01-18 21:07:00,16.5,3.1,30.30,SSE,161,12.0,14.0,55,0.00,,,0.00,Wunderground v.1.15,2013-01-19 02:07:00,
2013-01-18 21:12:00,16.5,3.5,30.30,SE,145,11.0,11.0,56,0.00,,,0.00,Wunderground v.1.15,2013-01-19 02:12:00,
2013-01-18 21:17:00,16.9,3.9,30.30,South,171,4.0,13.0,56,0.00,,,0.00,Wunderground v.1.15,2013-01-19 02:17:00,
2013-01-18 21:22:00,17.2,4.2,30.30,South,186,7.0,13.0,56,0.00,,,0.00,Wunderground v.1.15,2013-01-19 02:22:00,
2013-01-18 21:27:00,17.7,4.6,30.29,SE,142,7.0,14.0,56,0.00,,,0.00,Wunderground v.1.15,2013-01-19 02:27:00,
2013-01-18 21:32:00,17.7,5.0,30.29,SSE,159,11.0,12.0,57,0.00,,,0.00,Wunderground v.1.15,2013-01-19 02:32:00,
2013-01-18 21:37:00,17.5,4.8,30.29,SSE,167,10.0,13.0,57,0.00,,,0.00,Wunderground v.1.15,2013-01-19 02:37:00,
2013-01-18 21:42:00,17.8,5.5,30.29,South,169,5.0,12.0,58,0.00,,,0.00,Wunderground v.1.15,2013-01-19 02:42:00,
2013-01-18 21:47:00,18.4,5.7,30.29,SSE,167,6.0,17.0,57,0.00,,,0.00,Wunderground v.1.15,2013-01-19 02:47:00,
2013-01-18 21:52:00,18.6,5.9,30.29,SSE,162,10.0,12.0,57,0.00,,,0.00,Wunderground v.1.15,2013-01-19 02:52:00,
2013-01-18 21:57:00,18.8,6.1,30.28,SSW,197,5.0,17.0,57,0.00,,,0.00,Wunderground v.1.15,2013-01-19 02:57:00,
2013-01-18 22:02:00,19.1,6.0,30.28,South,173,10.0,16.0,56,0.00,,,0.00,Wunderground v.1.15,2013-01-19 03:02:00,
2013-01-18 22:08:00,19.2,6.8,30.28,South,178,7.0,16.0,58,0.00,,,0.00,Wunderground v.1.15,2013-01-19 03:08:00,
2013-01-18 22:13:00,19.2,6.4,30.27,South,169,4.0,12.0,57,0.00,,,0.00,Wunderground v.1.15,2013-01-19 03:13:00,
2013-01-18 22:18:00,19.4,6.6,30.27,South,175,5.0,12.0,57,0.00,,,0.00,Wunderground v.1.15,2013-01-19 03:18:00,
2013-01-18 22:23:00,19.2,6.8,30.27,South,179,7.0,14.0,58,0.00,,,0.00,Wunderground v.1.15,2013-01-19 03:23:00,
2013-01-18 22:28:00,19.4,7.0,30.27,South,188,5.0,14.0,58,0.00,,,0.00,Wunderground v.1.15,2013-01-19 03:28:00,
2013-01-18 22:33:00,19.5,6.7,30.27,South,172,6.0,18.0,57,0.00,,,0.00,Wunderground v.1.15,2013-01-19 03:33:00,
2013-01-18 22:38:00,19.5,6.7,30.27,South,178,7.0,18.0,57,0.00,,,0.00,Wunderground v.1.15,2013-01-19 03:38:00,
2013-01-18 22:43:00,19.7,6.5,30.25,SSE,157,14.0,14.0,56,0.00,,,0.00,Wunderground v.1.15,2013-01-19 03:43:00,
2013-01-18 22:48:00,19.7,6.5,30.25,South,173,15.0,16.0,56,0.00,,,0.00,Wunderground v.1.15,2013-01-19 03:48:00,
2013-01-18 22:53:00,19.9,6.7,30.25,South,173,18.0,18.0,56,0.00,,,0.00,Wunderground v.1.15,2013-01-19 03:53:00,
2013-01-18 22:58:00,19.9,6.7,30.25,South,171,5.0,18.0,56,0.00,,,0.00,Wunderground v.1.15,2013-01-19 03:58:00,
2013-01-18 23:04:00,19.9,6.7,30.25,South,171,12.0,19.0,56,0.00,,,0.00,Wunderground v.1.15,2013-01-19 04:04:00,
2013-01-18 23:08:00,20.0,6.4,30.25,South,181,9.0,19.0,55,0.00,,,0.00,Wunderground v.1.15,2013-01-19 04:08:00,
2013-01-18 23:13:00,20.0,6.4,30.24,South,190,13.0,18.0,55,0.00,,,0.00,Wunderground v.1.15,2013-01-19 04:13:00,
2013-01-18 23:19:00,20.0,6.8,30.24,South,184,10.0,21.0,56,0.00,,,0.00,Wunderground v.1.15,2013-01-19 04:19:00,
2013-01-18 23:23:00,20.0,6.4,30.24,South,190,10.0,17.0,55,0.00,,,0.00,Wunderground v.1.15,2013-01-19 04:23:00,
2013-01-18 23:28:00,20.2,6.6,30.24,South,190,13.0,20.0,55,0.00,,,0.00,Wunderground v.1.15,2013-01-19 04:28:00,
2013-01-18 23:33:00,20.2,6.6,30.24,South,188,10.0,14.0,55,0.00,,,0.00,Wunderground v.1.15,2013-01-19 04:33:00,
2013-01-18 23:38:00,20.2,6.6,30.24,SSE,167,8.0,17.0,55,0.00,,,0.00,Wunderground v.1.15,2013-01-19 04:38:00,
2013-01-18 23:43:00,20.2,7.0,30.23,South,174,9.0,13.0,56,0.00,,,0.00,Wunderground v.1.15,2013-01-19 04:43:00,
2013-01-18 23:48:00,20.3,6.7,30.23,South,173,9.0,17.0,55,0.00,,,0.00,Wunderground v.1.15,2013-01-19 04:48:00,
2013-01-18 23:53:00,20.3,6.7,30.23,South,178,11.0,16.0,55,0.00,,,0.00,Wunderground v.1.15,2013-01-19 04:53:00,
2013-01-18 23:59:00,20.3,6.7,30.23,SSE,156,9.0,17.0,55,0.00,,,0.00,Wunderground v.1.15,2013-01-19 04:59:00,